New Listings | Alphabetical Listings | Market Rank Listings | PPM Schedule | Arbitrends Schedule | Menu

Nielsen Audio Ratings

Market Rank: 1-50 | 51-100 | 101-150 | 151-200 | 201-250 | 251-300

Rank Market Posted Survey 12+
Population
88 Chattanooga TN 09-16-16 4S 586,500
106 Huntsville AL 09-16-16 4S 485,600
125 Jackson MS 09-16-16 4S 414,100
100 Madison WI 09-16-16 4S 520,300
137 Shreveport LA 09-16-16 4S 347,900
91 Colorado Springs CO 09-15-16 4S 566,200
72 Des Moines IA 09-15-16 4S 711,100
98 Mobile AL 09-15-16 4S 527,900
96 Spokane WA 09-15-16 4S 548,200
102 Wichita KS 09-15-16 4S 506,200
86 Columbia SC 09-14-16 4S 588,600
87 Greenville-New Bern NC 09-14-16 4S 588,200
83 Little Rock AR 09-14-16 4S 595,900
95 Springfield MA 09-14-16 4S 548,300
101 Toledo OH 09-14-16 4S 517,300
81 Akron OH 09-13-16 4S 610,900
79 Charleston SC 09-13-16 4S 636,100
84 Monterey-Salinas CA 09-13-16 4S 595,200
90 Syracuse 09-13-16 4S 569,900
69 Albuquerque NM 09-12-16 4S 755,400
76 El Paso TX 09-12-16 4S 690,600
82 Harrisburg-Lebanon-Carlisle PA 09-12-16 4S 603,400
110 Johnson City-Kingsport TN 09-12-16 4S 470,600
111 York PA 09-12-16 4S 468,300
78 Bakersfield CA 09-09-16 4S 641,900
63 Honolulu HI 09-09-16 4S 852,400
71 Knoxville TN 09-09-16 4S 712,300
73 Omaha-Council Bluffs NE 09-09-16 4S 694,400
66 Tulsa OK 09-09-16 4S 806,100

65 Albany-Schenectady-Troy NY 09-08-16 4S 812,700
70 Allentown-Bethlehem PA 09-08-16 4S 719,900
64 Dayton OH 09-08-16 4S 837,400
67 Fresno CA 09-08-16 4S 791,600
68 Grand Rapids MI 09-08-16 4S 769,000
75 Wilkes Barre-Scranton PA 09-08-16 4S 691,600
61 Birmingham AL 09-07-16 4S 917,300
57 Buffalo-Niagara Falls NY 09-07-16 4S 989,500
59 Greenville-Spartanburg SC 09-07-16 4S 941,100
54 Richmond VA 09-07-16 4S 1,030,400
58 Rochester NY 09-07-16 4S 967,100
62 Tucson AZ 09-07-16 4S 867,000
74 Baton Rouge LA 09-06-16 4S 693,500
55 Louisville KY 09-06-16 4S 1,029,900
47 New Orleans LA 09-06-16 4S 1,249,100
50 Oklahoma City OK 09-06-16 4S 1,230,400
15 Puerto Rico 09-06-16 4S 3,029,200
35 Austin TX 09-01-16 PPM 1,679,000
46 Greensboro-Winston-Salem-High Point NC 09-01-16 PPM 1,262,700
52 Hartford-New Britain CT 09-01-16 PPM 1,081,300
38 Indianapolis IN 09-01-16 PPM 1,511,400
49 Jacksonville FL 09-01-16 PPM 1,234,300
51 Memphis TN 09-01-16 PPM 1,119,800
41 Milwaukee-Racine WI 09-01-16 PPM 1,497,700
44 Nashville TN 09-01-16 PPM 1,402,800
45 Norfolk-VA Beach-Newport News VA 09-01-16 PPM 1,401,400
43 Providence RI 09-01-16 PPM 1,404,300
40 Raleigh-Durham NC 09-01-16 PPM 1,507,000
48 West Palm Beach FL 09-01-16 PPM 1,243,000
24 Charlotte-Gastonia NC 08-31-16 PPM 2,205,400

30 Cincinnati OH 08-31-16 PPM 1,811,000
32 Cleveland OH 08-31-16 PPM 1,775,100
37 Columbus OH 08-31-16 PPM 1,622,600
34 Kansas City MO 08-31-16 PPM 1,704,300
31 Las Vegas NV 08-31-16 PPM 1,785,800
33 Orlando FL 08-31-16 PPM 1,762,300
26 Pittsburgh PA 08-31-16 PPM 2,003,300
23 Portland OR 08-31-16 PPM 2,257,300
28 Sacramento CA 08-31-16 PPM 1,962,600
29 Salt Lake City UT 08-31-16 PPM 1,843,800
27 San Antonio TX 08-31-16 PPM 1,990,600
21 Baltimore MD 08-30-16 PPM 2,399,600
10 Boston MA 08-30-16 PPM 4,238,000
18 Denver-Boulder CO 08-30-16 PPM 2,611,000
12 Detroit MI 08-30-16 PPM 3,807,600
11 Miami-Fort Lauderdale FL 08-30-16 PPM 3,968,900
16 Minneapolis-St. Paul MN 08-30-16 PPM 2,910,700
14 Phoenix AZ 08-30-16 PPM 3,504,100
17 San Diego CA 08-30-16 PPM 2,809,900
13 Seattle-Tacoma WA 08-30-16 PPM 3,704,200
22 St. Louis MO 08-30-16 PPM 2,338,100
19 Tampa-St. Petersburg FL 08-30-16 PPM 2,584,300
7 Washington DC 08-30-16 PPM 4,850,900
8 Atlanta GA 08-29-16 PPM 4,646,400
3 Chicago IL 08-29-16 PPM 7,974,700
5 Dallas-Ft. Worth TX 08-29-16 PPM 5,794,200
6 Houston-Galveston TX 08-29-16 PPM 5,546,400
2 Los Angeles CA 08-29-16 PPM 11,419,500
42 Middlesex-Somerset-Union 08-29-16 PPM 1,482,700
20 Nassau-Suffolk NY 08-29-16 PPM 2,477,900

1 New York NY 08-29-16 PPM 16,278,300
9 Philadelphia PA 08-29-16 PPM 4,572,200
25 Riverside-San Bernardino CA 08-29-16 PPM 2,047,500
4 San Francisco CA 08-29-16 PPM 6,601,300
36 San Jose CA 08-29-16 PPM 1,630,900
274 Beckley WV 08-04-16 2A 66,600
261 Bismarck ND 08-04-16 2A 105,600
268 Bluefield WV 08-04-16 2A 91,000
256 Harrisonburg VA 08-04-16 2A 115,400
271 Jackson TN 08-04-16 2A 82,700
254 Rapid City SD 08-04-16 2A 115,900
264 San Angelo TX 08-04-16 2A 99,100
262 Sioux City IA 08-04-16 2A 101,000
188 Sioux Falls SD 08-04-16 2C 215,800
251 Wichita Falls TX 08-04-16 2A 120,100
237 Abilene TX 08-03-16 2A 143,200
242 Billings MT 08-03-16 2A 133,400
233 Columbia MO 08-03-16 2A 151,200
238 Eau Claire WI 08-03-16 2A 142,400
253 Grand Island-Kearney-Hastings NE 08-03-16 2A 118,300
235 Joplin MO 08-03-16 2A 147,600
222 La Crosse WI 08-03-16 2A 166,200
224 Lafayette IN 08-03-16 2S 160,000
243 Monroe LA 08-03-16 2A 130,300
232 Panama City FL 08-03-16 2A 155,000
246 Parkersburg-Marietta WV 08-03-16 2A 127,600
223 Rochester MN 08-03-16 2A 161,700
248 Wheeling WV 08-03-16 2S 126,400
205 Bend OR 08-02-16 2A 187,500
206 Cedar Rapids IA 08-02-16 2S 185,800

202 Chico CA 08-02-16 2A 197,000
211 Duluth-Superior MN-WI 08-02-16 2S 180,000
201 Fargo-Moorhead ND-MN 08-02-16 2S 199,200
216 Florence SC 08-02-16 2A 175,600
273 Grand Forks ND 08-02-16 2A 79,800
192 Laredo TX 08-02-16 2A 211,500
208 Medford-Ashland OR 08-02-16 2A 183,000
240 Waterloo-Cedar Falls IA 08-02-16 2A 135,600
212 Winchester VA 08-02-16 2A 178,200
199 Yakima WA 08-02-16 2A 200,300
171 Amarillo TX 08-01-16 2A 254,700
190 Bryan-College Station TX 08-01-16 2A 212,900
195 Cape Cod MA 08-01-16 2A 209,100
182 Columbus GA 08-01-16 2S 227,500
194 Frederick MD 08-01-16 2C 210,100
172 Lubbock TX 08-01-16 2S 251,600
169 Odessa-Midland TX 08-01-16 2A 258,500
231 Redding CA 08-01-16 2A 155,800
265 Sheboygan WI 08-01-16 2A 98,900
215 Terre Haute IN 08-01-16 2S 176,100
183 Tri-Cities WA 08-01-16 2A 227,300
196 Waco TX 08-01-16 2A 206,900
173 Anchorage AK 07-29-16 2S 251,300
189 Binghamton NY 07-29-16 2S 214,500
191 Charleston WV 07-29-16 2S 212,700
179 Erie PA 07-29-16 2S 238,100
152 Eugene-Springfield OR 07-29-16 2S 317,900
164 Evansville IN 07-29-16 2S 269,100
153 Flagstaff-Prescott AZ 07-29-16 2A 317,400
165 Huntington-Ashland WV 07-29-16 2S 268,500

131 Macon GA 07-29-16 2S 369,600
175 Morgantown-Clarksburg-Fairmont WV 07-29-16 2A 246,500
161 Rockford IL 07-29-16 2S 287,100
163 Tallahassee FL 07-29-16 2S 278,900
252 Valdosta GA 07-29-16 2A 119,000
177 Wausau-Stevens Point WI (Central Wiscons 07-29-16 2A 240,100
241 Albany GA 07-28-16 2A 133,600
155 Ann Arbor MI 07-28-16 2A 314,700
141 Beaumont-Port Arthur TX 07-28-16 2A 332,000
234 Bloomington IL 07-28-16 2S 149,600
193 Dothan AL 07-28-16 2A 211,200
229 Hilton Head SC 07-28-16 2A 156,200
140 Killeen-Temple TX 07-28-16 2A 334,800
244 LaSalle-Peru IL 07-28-16 2A 128,800
221 Lake Charles LA 07-28-16 2A 166,300
158 Montgomery AL 07-28-16 2S 304,600
181 New Bedford-Fall River MA 07-28-16 2C 230,300
157 Peoria IL 07-28-16 2S 305,600
156 Quad Cities IL 07-28-16 2S 311,800
138 Salisbury-Ocean City MD 07-28-16 2S 344,100
150 Savannah GA 07-28-16 2S 320,100
135 Springfield MO 07-28-16 2S 348,700
139 Appleton-Oshkosh WI 07-27-16 2S 343,800
108 Corpus Christi TX 07-27-16 2S 476,800
128 Fayetteville (North West Arkansas) AR 07-27-16 2A 406,400
129 Fayetteville NC 07-27-16 2S 383,000
136 Flint MI 07-27-16 2S 347,900
187 Green Bay WI 07-27-16 2S 217,700
127 Lansing-East Lansing MI 07-27-16 2S 409,000
133 Reading PA 07-27-16 2A 353,800
122 Reno NV 07-27-16 2S 427,900
142 Tyler-Longview TX 07-27-16 2S 331,800
130 Youngstown-Warren OH 07-27-16 2S 378,600
124 Bridgeport CT 07-26-16 2S 421,100
272 Cheyenne WY 07-26-16 2A 82,300
112 Fort Collins-Greeley CO 07-26-16 2A 460,900
118 Modesto CA 07-26-16 2S 443,500
120 Morristown NJ 07-26-16 2C 434,200
121 New Haven CT 07-26-16 2S 430,300
119 Oxnard-Ventura CA 07-26-16 2S 436,100
132 Palm Springs CA 07-26-16 2S 354,700
174 San Luis Obispo CA 07-26-16 2A 247,600
209 Santa Barbara CA 07-26-16 2A 182,400
203 Santa Maria-Lompoc CA 07-26-16 2A 196,500
184 South Bend IN 07-26-16 2S 226,500
113 Victor Valley 07-26-16 2S 458,900
151 Atlantic City NJ 07-25-16 2S 318,700
109 Augusta GA 07-25-16 2S 472,700
245 Florence-Muscle Shoals AL 07-25-16 2A 128,200
114 Fort Wayne IN 07-25-16 2S 452,900

103 Lexington-Fayette KY 07-25-16 2S 503,600
104 Melbourne-Titusville-Cocoa FL 07-25-16 2S 499,100
218 Muncie-Marion IN 07-25-16 2A 171,600
117 Roanoke-Lynchburg VA 07-25-16 2S 445,400
249 Sussex NJ 07-25-16 2A 125,500
149 Trenton NJ 07-25-16 2S 320,600
116 Worcester MA 07-25-16 2S 446,100
97 Boise ID 07-22-16 2S 535,700
94 Daytona Beach FL 07-22-16 2S 549,900
99 Fort Pierce-Stuart FL 07-22-16 2S 525,700
185 Fort Walton Beach FL 07-22-16 2A 225,400
93 Lakeland-Winter Haven FL 07-22-16 2S 552,200
126 Pensacola FL 07-22-16 2S 413,900
239 Pueblo CO 07-22-16 2S 138,800
197 Salina-Manhattan KS 07-22-16 2A 201,200
204 Topeka KS 07-22-16 2S 196,500
250 Twin Falls-Sun Valley, ID 07-22-16 2A 120,500
89 Gainesville-Ocala FL 07-21-16 2S 579,700
270 Hot Springs AR 07-21-16 2A 84,400
84 Stockton CA 07-21-16 2S 595,200
134 Canton OH 07-20-16 2S 348,700
227 Elmira-Corning NY 07-20-16 2A 158,800
167 Hagerstown-Chambersburg MD 07-20-16 2A 259,600
115 Lancaster PA 07-20-16 2S 452,500
168 Lincoln NE 07-20-16 2S 258,900
147 Myrtle Beach SC 07-20-16 2A 324,300
178 New London CT 07-20-16 2A 238,300
80 Wilmington DE 07-20-16 2S 619,300
213 Las Cruces NM 07-19-16 2A 176,800
180 Merced CA 07-19-16 2A 233,100

105 Visalia-Tulare-Hanford CA 07-19-16 2S 488,400
263 Williamsport PA 07-19-16 2A 100,700
257 Battle Creek MI 07-18-16 2A 114,800
198 Danbury CT 07-18-16 2A 200,300
60 Ft. Myers-Naples-Marco Island FL 07-18-16 2S 927,200
162 Ft. Smith AR 07-18-16 2A 282,700
186 Kalamazoo MI 07-18-16 2S 224,100
230 Lima OH 07-18-16 2A 156,000
56 McAllen-Brownsville TX 07-18-16 2S 1,000,700
236 Muskegon MI 07-18-16 2A 146,400
77 Sarasota-Bradenton FL 07-18-16 2S 680,300
148 Stamford-Norwalk CT 07-18-16 2A 323,400
260 Augusta-Waterville ME 07-15-16 2A 106,000
220 Bangor ME 07-15-16 2S 169,500
144 Burlington-Plattsburgh VT-NY 07-15-16 2S 330,100
176 Concord (Lakes Region) 07-15-16 2S 240,300
39 Hudson Valley 07-15-16 2S 1,510,300
228 Lebanon-Hanover-White River Junction, NH 07-15-16 2A 157,800
200 Manchester NH 07-15-16 2S 199,900
259 Montpelier-Barre-St. Johnsbury VT 07-15-16 2S 107,400
92 Portland ME 07-15-16 2S 553,800
123 Portsmouth-Dover NH 07-15-16 2S 426,100
166 Poughkeepsie NY 07-15-16 2A 260,000
170 Utica-Rome NY 07-15-16 2S 254,900
160 Asheville NC 07-14-16 2S 294,000
207 Charlottesville, VA 07-14-16 2A 183,600
143 Fredericksburg VA 07-14-16 2S 331,600
214 Tuscaloosa AL 07-14-16 2A 176,200
145 Biloxi-Gulfport-Pascagoula MS 07-13-16 2S 329,200
107 Lafayette LA 07-13-16 2S 479,700

219 Laurel-Hattiesburg MS 07-13-16 2A 171,500
53 Monmouth-Ocean NJ 07-13-16 2S 1,041,000
225 Jonesboro AR 01-27-16 2A 159,200
247 Grand Junction CO 01-26-16 2A 126,500
146 Saginaw-Bay City-Midland MI 01-19-16 2A 329,000
255 Texarkana TX-AR 01-19-16 2A 115,700
258 Altoona PA 09-15-15 2S 108,600
269 Brunswick GA 09-15-15 2A 85,900
210 Champaign IL 09-15-15 2A 182,200
267 Decatur IL 09-15-15 2A 91,500
226 Olean NY 09-15-15 2A 159,000
266 Watertown NY 09-15-15 2A 97,400
154 Newburgh-Middletown, NY BH 07-21-10 2C 315,300
217 Sunbury-Selinsgrove-Lewisburg, PA 07-25-07 2C 173,000

Survey Key:
PPM - Portable People Meter
4S - Diary Standard Continuous Measurement
2S - Diary Standard Measurement
2C - Diary Condensed Measurement
2A - Diary 2-book Average

Ratings profiles are Copyright © 2016 Nielsen Audio. May not be quoted or reproduced without the prior written permission of Nielsen Audio.

Return to Menu
Copyright © 1989-2016 RADIO ONLINE ®

Sponsored Links
Radio Station Data For Less
Radio station data for all of the rated markets. Top 400 Metros-Over 12,000 AM/FM/HD $299 includes 1 year free updates.